createdAt,value
2023-05-05T00:00:39.899Z,17.10
2023-05-05T00:01:44.139Z,17.10
2023-05-05T00:02:47.406Z,17.10
2023-05-05T00:03:56.698Z,17.00
2023-05-05T00:05:04.808Z,17.00
2023-05-05T00:06:09.250Z,17.00
2023-05-05T00:07:12.368Z,17.00
2023-05-05T00:08:16.512Z,17.00
2023-05-05T00:09:20.761Z,17.00
2023-05-05T00:10:25.650Z,16.90
2023-05-05T00:11:28.472Z,16.90
2023-05-05T00:12:33.043Z,16.90
2023-05-05T00:13:37.420Z,16.90
2023-05-05T00:14:42.559Z,16.90
2023-05-05T00:15:47.982Z,16.80
2023-05-05T00:16:54.450Z,16.80
2023-05-05T00:17:57.435Z,16.80
2023-05-05T00:19:01.549Z,16.80
2023-05-05T00:20:05.882Z,16.70
2023-05-05T00:21:10.338Z,16.70
2023-05-05T00:22:12.881Z,16.70
2023-05-05T00:23:17.648Z,16.60
2023-05-05T00:24:21.820Z,16.60
2023-05-05T00:25:25.890Z,16.60
2023-05-05T00:26:28.909Z,16.60
2023-05-05T00:27:32.964Z,16.50
2023-05-05T00:28:35.806Z,16.50
2023-05-05T00:29:40.244Z,16.50
2023-05-05T00:30:43.077Z,16.50
2023-05-05T00:31:47.429Z,16.40
2023-05-05T00:32:50.894Z,16.40
2023-05-05T00:33:54.425Z,16.40
2023-05-05T00:34:56.885Z,16.40
2023-05-05T00:36:00.279Z,16.40
2023-05-05T00:37:03.419Z,16.40
2023-05-05T00:38:06.934Z,16.40
2023-05-05T00:39:10.108Z,16.40
2023-05-05T00:40:16.491Z,16.40
2023-05-05T00:41:20.072Z,16.40
2023-05-05T00:42:24.644Z,16.30
2023-05-05T00:43:27.675Z,16.30
2023-05-05T00:44:39.593Z,16.30
2023-05-05T00:45:47.533Z,16.30
2023-05-05T00:46:50.113Z,16.30
2023-05-05T00:47:56.058Z,16.30
2023-05-05T00:49:00.642Z,16.30
2023-05-05T00:50:05.027Z,16.30
2023-05-05T00:51:09.360Z,16.30
2023-05-05T00:52:13.198Z,16.30
2023-05-05T00:53:15.623Z,16.30
2023-05-05T00:54:19.270Z,16.30
2023-05-05T00:55:23.335Z,16.30
2023-05-05T00:56:27.446Z,16.30
2023-05-05T00:57:30.439Z,16.30
2023-05-05T00:58:34.660Z,16.30
2023-05-05T00:59:38.220Z,16.30
2023-05-05T01:00:41.851Z,16.30
2023-05-05T01:01:44.664Z,16.30
2023-05-05T01:02:48.355Z,16.40
2023-05-05T01:03:51.008Z,16.40
2023-05-05T01:04:55.566Z,16.40
2023-05-05T01:06:19.176Z,16.40
2023-05-05T01:07:32.967Z,16.40
2023-05-05T01:08:55.440Z,16.40
2023-05-05T01:10:18.311Z,16.40
2023-05-05T01:11:33.142Z,16.40
2023-05-05T01:12:49.693Z,16.40
2023-05-05T01:14:06.353Z,16.40
2023-05-05T01:15:19.267Z,16.50
2023-05-05T01:16:27.730Z,16.50
2023-05-05T01:17:41.981Z,16.50
2023-05-05T01:19:07.178Z,16.50
2023-05-05T01:20:25.005Z,16.50
2023-05-05T01:21:43.818Z,16.50
2023-05-05T01:22:49.704Z,16.50
2023-05-05T01:24:46.817Z,16.50
2023-05-05T01:26:22.637Z,16.50
2023-05-05T01:27:59.362Z,16.50
2023-05-05T01:29:26.191Z,16.50
2023-05-05T01:31:08.081Z,16.50
2023-05-05T01:32:15.023Z,16.50
2023-05-05T01:33:26.761Z,16.50
2023-05-05T01:34:39.203Z,16.50
2023-05-05T01:35:48.596Z,16.50
2023-05-05T01:36:56.925Z,16.50
2023-05-05T01:38:07.149Z,16.50
2023-05-05T01:39:16.701Z,16.40
2023-05-05T01:40:31.278Z,16.40
2023-05-05T01:41:50.308Z,16.40
2023-05-05T01:43:08.741Z,16.40
2023-05-05T01:44:14.216Z,16.40
2023-05-05T01:45:35.924Z,16.40
2023-05-05T01:46:44.772Z,16.40
2023-05-05T01:48:00.937Z,16.40
2023-05-05T01:49:09.364Z,16.40
2023-05-05T01:50:19.795Z,16.40
2023-05-05T01:51:33.977Z,16.40
2023-05-05T01:52:53.149Z,16.40
2023-05-05T01:54:09.132Z,16.40
2023-05-05T01:55:21.339Z,16.40
2023-05-05T01:56:33.887Z,16.40
2023-05-05T01:57:46.174Z,16.40
2023-05-05T01:58:52.815Z,16.40
2023-05-05T02:00:10.107Z,16.40
2023-05-05T02:01:35.134Z,16.40
2023-05-05T02:02:55.374Z,16.40
2023-05-05T02:04:13.015Z,16.30
2023-05-05T02:05:23.274Z,16.30
2023-05-05T02:06:30.463Z,16.30
2023-05-05T02:07:38.883Z,16.30
2023-05-05T02:08:44.692Z,16.30
2023-05-05T02:10:04.371Z,16.30
2023-05-05T02:11:11.430Z,16.30
2023-05-05T02:12:25.046Z,16.20
2023-05-05T02:13:33.122Z,16.20
2023-05-05T02:14:42.995Z,16.20
2023-05-05T02:15:58.100Z,16.20
2023-05-05T02:17:08.011Z,16.20
2023-05-05T02:18:14.830Z,16.10
2023-05-05T02:19:29.225Z,16.10
2023-05-05T02:20:44.552Z,16.10
2023-05-05T02:21:55.508Z,16.00
2023-05-05T02:23:05.281Z,16.00
2023-05-05T02:24:10.683Z,16.00
2023-05-05T02:25:15.439Z,16.00
2023-05-05T02:26:27.684Z,15.90
2023-05-05T02:27:35.895Z,15.90
2023-05-05T02:28:52.725Z,15.90
2023-05-05T02:30:09.094Z,15.90
2023-05-05T02:31:29.738Z,15.80
2023-05-05T02:32:40.734Z,15.80
2023-05-05T02:33:51.651Z,15.80
2023-05-05T02:35:09.785Z,15.70
2023-05-05T02:36:24.282Z,15.70
2023-05-05T02:37:35.828Z,15.70
2023-05-05T02:38:45.863Z,15.60
2023-05-05T02:40:03.626Z,15.60
2023-05-05T02:41:20.258Z,15.60
2023-05-05T02:42:26.987Z,15.60
2023-05-05T02:43:38.231Z,15.50
2023-05-05T02:44:45.939Z,15.50
2023-05-05T02:45:52.984Z,15.50
2023-05-05T02:46:58.764Z,15.40
2023-05-05T02:48:05.273Z,15.40
2023-05-05T02:49:13.671Z,15.40
2023-05-05T02:50:21.388Z,15.40
2023-05-05T02:51:34.266Z,15.30
2023-05-05T02:52:51.239Z,15.30
2023-05-05T02:53:58.455Z,15.30
2023-05-05T02:55:15.287Z,15.20
2023-05-05T02:56:33.853Z,15.20
2023-05-05T02:57:50.390Z,15.20
2023-05-05T02:59:05.323Z,15.10
2023-05-05T03:00:21.059Z,15.10
2023-05-05T03:01:47.835Z,15.10
2023-05-05T03:03:05.128Z,15.10
2023-05-05T03:04:12.613Z,15.00
2023-05-05T03:05:27.086Z,15.00
2023-05-05T03:06:33.027Z,15.00
2023-05-05T03:07:43.206Z,15.00
2023-05-05T03:08:56.489Z,14.90
2023-05-05T03:10:08.736Z,14.90
2023-05-05T03:11:24.056Z,14.90
2023-05-05T03:12:37.406Z,14.80
2023-05-05T03:14:11.918Z,14.80
2023-05-05T03:15:15.528Z,14.80
2023-05-05T03:16:21.682Z,14.80
2023-05-05T03:17:25.730Z,14.80
2023-05-05T03:18:32.201Z,14.70
2023-05-05T03:19:38.140Z,14.70
2023-05-05T03:20:44.425Z,14.70
2023-05-05T03:21:49.822Z,14.60
2023-05-05T03:22:54.813Z,14.60
2023-05-05T03:23:58.355Z,14.60
2023-05-05T03:25:01.714Z,14.60
2023-05-05T03:26:04.278Z,14.60
2023-05-05T03:27:16.334Z,14.60
2023-05-05T03:28:18.855Z,14.50
2023-05-05T03:29:22.322Z,14.50
2023-05-05T03:30:24.917Z,14.50
2023-05-05T03:31:29.460Z,14.50
2023-05-05T03:32:35.813Z,14.50
2023-05-05T03:33:38.382Z,14.50
2023-05-05T03:34:43.008Z,14.40
2023-05-05T03:35:47.003Z,14.40
2023-05-05T03:36:51.038Z,14.40
2023-05-05T03:37:53.482Z,14.40
2023-05-05T03:38:56.912Z,14.40
2023-05-05T03:40:00.939Z,14.40
2023-05-05T03:41:04.900Z,14.40
2023-05-05T03:42:08.101Z,14.40
2023-05-05T03:43:12.411Z,14.40
2023-05-05T03:44:14.970Z,14.30
2023-05-05T03:45:19.172Z,14.30
2023-05-05T03:46:21.713Z,14.30
2023-05-05T03:47:25.246Z,14.30
2023-05-05T03:48:29.375Z,14.30
2023-05-05T03:49:32.906Z,14.20
2023-05-05T03:50:36.641Z,14.20
2023-05-05T03:51:41.798Z,14.20
2023-05-05T03:52:44.355Z,14.20
2023-05-05T03:53:48.132Z,14.20
2023-05-05T03:54:50.739Z,14.20
2023-05-05T03:55:55.075Z,14.20
2023-05-05T03:56:58.329Z,14.10
2023-05-05T03:58:02.563Z,14.10
2023-05-05T03:59:05.074Z,14.10
2023-05-05T04:00:11.938Z,14.10
2023-05-05T04:01:17.776Z,14.10
2023-05-05T04:02:21.270Z,14.10
2023-05-05T04:03:25.274Z,14.10
2023-05-05T04:04:28.338Z,14.10
2023-05-05T04:05:31.956Z,14.00
2023-05-05T04:06:34.483Z,14.00
2023-05-05T04:07:39.675Z,14.00
2023-05-05T04:08:42.252Z,14.00
2023-05-05T04:09:45.809Z,14.00
2023-05-05T04:10:48.690Z,14.00
2023-05-05T04:11:52.484Z,14.00
2023-05-05T04:12:55.093Z,14.00
2023-05-05T04:13:58.690Z,14.00
2023-05-05T04:15:03.608Z,13.90
2023-05-05T04:16:08.816Z,13.90
2023-05-05T04:17:12.692Z,13.90
2023-05-05T04:18:16.387Z,13.90
2023-05-05T04:19:19.027Z,13.90
2023-05-05T04:20:22.940Z,13.90
2023-05-05T04:21:25.500Z,13.90
2023-05-05T04:22:29.145Z,13.90
2023-05-05T04:23:33.200Z,13.90
2023-05-05T04:24:37.265Z,13.80
2023-05-05T04:25:40.018Z,13.90
2023-05-05T04:26:43.516Z,13.90
2023-05-05T04:27:47.115Z,13.90
2023-05-05T04:28:51.266Z,13.90
2023-05-05T04:29:54.542Z,13.90
2023-05-05T04:30:59.366Z,13.90
2023-05-05T04:32:01.994Z,13.90
2023-05-05T04:33:06.504Z,13.90
2023-05-05T04:34:09.678Z,13.90
2023-05-05T04:35:13.994Z,14.00
2023-05-05T04:36:16.850Z,13.90
2023-05-05T04:37:20.490Z,13.90
2023-05-05T04:38:23.153Z,14.00
2023-05-05T04:39:28.415Z,13.90
2023-05-05T04:40:31.423Z,13.90
2023-05-05T04:41:35.634Z,13.90
2023-05-05T04:42:38.315Z,13.90
2023-05-05T04:43:42.224Z,13.90
2023-05-05T04:44:44.883Z,13.90
2023-05-05T04:45:54.658Z,14.00
2023-05-05T04:47:00.992Z,14.00
2023-05-05T04:48:05.275Z,14.00
2023-05-05T04:49:09.407Z,14.00
2023-05-05T04:50:13.713Z,14.10
2023-05-05T04:51:16.155Z,14.10
2023-05-05T04:52:19.730Z,14.20
2023-05-05T04:53:25.268Z,14.30
2023-05-05T04:54:30.165Z,14.40
2023-05-05T04:55:33.602Z,14.50
2023-05-05T04:56:37.258Z,14.60
2023-05-05T04:57:39.663Z,14.70
2023-05-05T04:58:43.329Z,14.80
2023-05-05T04:59:48.802Z,14.90
2023-05-05T05:00:52.323Z,15.00
2023-05-05T05:01:54.991Z,15.10
2023-05-05T05:02:58.543Z,15.30
2023-05-05T05:04:01.239Z,15.40
2023-05-05T05:05:05.006Z,15.60
2023-05-05T05:06:07.698Z,15.70
2023-05-05T05:07:14.766Z,15.80
2023-05-05T05:08:19.441Z,16.00
2023-05-05T05:09:22.068Z,16.10
2023-05-05T05:10:26.992Z,16.30
2023-05-05T05:11:29.475Z,16.40
2023-05-05T05:12:33.034Z,16.60
2023-05-05T05:13:35.498Z,16.70
2023-05-05T05:14:39.212Z,16.90
2023-05-05T05:15:42.367Z,17.10
2023-05-05T05:16:45.919Z,17.20
2023-05-05T05:17:48.883Z,17.40
2023-05-05T05:18:52.564Z,17.60
2023-05-05T05:19:56.200Z,17.80
2023-05-05T05:20:59.683Z,18.00
2023-05-05T05:22:02.190Z,18.10
2023-05-05T05:23:07.596Z,18.30
2023-05-05T05:24:13.830Z,18.50
2023-05-05T05:25:17.446Z,18.60
2023-05-05T05:26:22.253Z,18.80
2023-05-05T05:27:26.398Z,19.00
2023-05-05T05:28:30.082Z,19.20
2023-05-05T05:29:35.742Z,19.30
2023-05-05T05:30:38.353Z,19.50
2023-05-05T05:31:43.398Z,19.70
2023-05-05T05:32:45.975Z,19.90
2023-05-05T05:33:49.510Z,20.00
2023-05-05T05:34:51.970Z,20.20
2023-05-05T05:35:55.593Z,20.30
2023-05-05T05:36:58.160Z,20.50
2023-05-05T05:38:02.391Z,20.70
2023-05-05T05:39:05.041Z,20.80
2023-05-05T05:40:10.495Z,21.00
2023-05-05T05:41:14.385Z,21.10
2023-05-05T05:42:19.695Z,21.30
2023-05-05T05:43:22.552Z,21.50
2023-05-05T05:44:27.030Z,21.60
2023-05-05T05:45:30.007Z,21.70
2023-05-05T05:46:33.492Z,21.90
2023-05-05T05:47:36.279Z,22.10
2023-05-05T05:48:40.122Z,22.30
2023-05-05T05:49:42.726Z,22.40
2023-05-05T05:50:46.474Z,22.60
2023-05-05T05:51:49.469Z,22.80
2023-05-05T05:52:53.702Z,22.90
2023-05-05T05:53:58.862Z,23.10
2023-05-05T05:55:01.682Z,23.30
2023-05-05T05:56:06.370Z,23.40
2023-05-05T05:57:08.864Z,23.60
2023-05-05T05:58:13.733Z,23.80
2023-05-05T05:59:16.198Z,24.00
2023-05-05T06:00:20.218Z,24.10
2023-05-05T06:01:28.727Z,24.30
2023-05-05T06:02:32.618Z,24.50
2023-05-05T06:03:35.352Z,24.70
2023-05-05T06:04:39.106Z,24.80
2023-05-05T06:05:41.732Z,25.00
2023-05-05T06:06:45.574Z,25.10
2023-05-05T06:07:48.350Z,25.30
2023-05-05T06:08:52.496Z,25.40
2023-05-05T06:09:55.046Z,25.50
2023-05-05T06:11:00.542Z,25.60
2023-05-05T06:12:04.247Z,25.60
2023-05-05T06:13:07.784Z,25.70
2023-05-05T06:14:17.057Z,25.70
2023-05-05T06:15:20.611Z,25.80
2023-05-05T06:16:24.265Z,25.90
2023-05-05T06:17:27.013Z,26.00
2023-05-05T06:18:30.835Z,26.10
2023-05-05T06:19:34.378Z,26.20
2023-05-05T06:20:38.040Z,26.30
2023-05-05T06:21:40.842Z,26.50
2023-05-05T06:22:44.422Z,26.60
2023-05-05T06:23:48.614Z,26.70
2023-05-05T06:24:51.687Z,26.80
2023-05-05T06:25:55.860Z,26.90
2023-05-05T06:26:59.490Z,27.10
2023-05-05T06:28:02.088Z,27.20
2023-05-05T06:29:06.004Z,27.30
2023-05-05T06:30:11.548Z,27.40
2023-05-05T06:31:15.065Z,27.60
2023-05-05T06:32:17.563Z,27.70
2023-05-05T06:33:20.899Z,27.80
2023-05-05T06:34:23.416Z,28.00
2023-05-05T06:35:27.076Z,28.10
2023-05-05T06:36:29.579Z,28.20
2023-05-05T06:37:33.016Z,28.30
2023-05-05T06:38:35.436Z,28.40
2023-05-05T06:39:38.856Z,28.50
2023-05-05T06:40:42.096Z,28.50
2023-05-05T06:41:45.682Z,28.60
2023-05-05T06:42:48.125Z,28.70
2023-05-05T06:43:57.856Z,28.70
2023-05-05T06:45:01.552Z,28.70
2023-05-05T06:46:05.785Z,28.70
2023-05-05T06:47:09.491Z,28.80
2023-05-05T06:48:12.334Z,28.80
2023-05-05T06:49:15.780Z,28.80
2023-05-05T06:50:18.386Z,28.80
2023-05-05T06:51:24.790Z,28.80
2023-05-05T06:52:27.676Z,28.90
2023-05-05T06:53:31.334Z,29.00
2023-05-05T06:55:37.594Z,29.20
2023-05-05T06:56:40.092Z,29.30
2023-05-05T06:57:43.845Z,29.50
2023-05-05T06:58:47.908Z,29.60
2023-05-05T06:59:50.581Z,29.80
2023-05-05T07:00:54.542Z,30.00
2023-05-05T07:01:58.617Z,30.20
2023-05-05T07:03:02.223Z,30.30
2023-05-05T07:04:07.195Z,30.50
2023-05-05T07:05:11.817Z,30.70
2023-05-05T07:06:14.799Z,30.90
2023-05-05T07:07:18.671Z,31.10
2023-05-05T07:08:22.627Z,31.30
2023-05-05T07:09:25.381Z,31.50
2023-05-05T07:11:32.300Z,31.70
2023-05-05T07:12:36.228Z,31.60
2023-05-05T07:13:39.733Z,31.50
2023-05-05T07:14:42.319Z,31.40
2023-05-05T07:15:46.712Z,31.10
2023-05-05T07:16:49.404Z,30.90
2023-05-05T07:17:54.572Z,30.60
2023-05-05T07:18:57.054Z,30.30
2023-05-05T07:20:05.995Z,30.20
2023-05-05T07:21:09.787Z,30.10
2023-05-05T07:22:12.451Z,30.20
2023-05-05T07:23:16.192Z,30.20
2023-05-05T07:24:18.771Z,30.30
2023-05-05T07:25:23.039Z,30.40
2023-05-05T07:26:25.767Z,30.60
2023-05-05T07:27:29.607Z,30.70
2023-05-05T07:28:33.200Z,30.90
2023-05-05T07:29:36.967Z,31.10
2023-05-05T07:30:40.494Z,31.20
2023-05-05T07:31:43.033Z,31.40
2023-05-05T07:32:47.070Z,31.60
2023-05-05T07:33:51.982Z,31.80
2023-05-05T07:34:54.863Z,32.10
2023-05-05T07:35:58.479Z,32.30
2023-05-05T07:37:02.259Z,32.60
2023-05-05T07:38:05.217Z,32.90
2023-05-05T07:39:08.949Z,33.20
2023-05-05T07:40:14.787Z,33.50
2023-05-05T07:41:19.409Z,33.70
2023-05-05T07:42:25.570Z,33.80
2023-05-05T07:43:31.973Z,33.90
2023-05-05T07:44:36.227Z,33.90
2023-05-05T07:45:39.998Z,33.80
2023-05-05T07:46:42.743Z,33.70
2023-05-05T07:47:46.477Z,33.60
2023-05-05T07:48:51.665Z,33.60
2023-05-05T07:49:56.042Z,33.60
2023-05-05T07:50:58.983Z,33.70
2023-05-05T07:52:02.773Z,33.70
2023-05-05T07:53:14.445Z,33.80
2023-05-05T07:54:23.216Z,34.00
2023-05-05T07:55:26.947Z,34.20
2023-05-05T07:56:31.566Z,34.30
2023-05-05T07:57:38.126Z,34.50
2023-05-05T07:58:42.338Z,34.60
2023-05-05T07:59:45.213Z,34.70
2023-05-05T08:00:52.027Z,34.90
2023-05-05T08:01:55.200Z,35.00
2023-05-05T08:02:59.019Z,35.20
2023-05-05T08:04:04.216Z,35.30
2023-05-05T08:05:09.682Z,35.50
2023-05-05T08:06:21.792Z,35.60
2023-05-05T08:07:25.651Z,35.80
2023-05-05T08:08:30.090Z,36.00
2023-05-05T08:09:33.957Z,36.20
2023-05-05T08:10:41.315Z,36.30
2023-05-05T08:11:43.807Z,36.50
2023-05-05T08:12:47.745Z,36.70
2023-05-05T08:13:50.285Z,36.70
2023-05-05T08:14:53.975Z,36.80
2023-05-05T08:15:59.734Z,36.80
2023-05-05T08:17:03.352Z,36.80
2023-05-05T08:18:07.690Z,36.80
2023-05-05T08:19:28.661Z,36.80
2023-05-05T08:20:33.668Z,36.80
2023-05-05T08:21:40.908Z,36.70
2023-05-05T08:22:44.852Z,36.50
2023-05-05T08:23:48.500Z,36.40
2023-05-05T08:24:52.293Z,36.30
2023-05-05T08:25:56.043Z,36.20
2023-05-05T08:27:00.166Z,35.90
2023-05-05T08:28:03.820Z,35.70
2023-05-05T08:29:08.241Z,35.40
2023-05-05T08:30:16.564Z,35.00
2023-05-05T08:31:20.483Z,34.70
2023-05-05T08:32:22.904Z,34.30
2023-05-05T08:33:26.499Z,34.00
2023-05-05T08:34:33.652Z,33.80
2023-05-05T08:35:36.485Z,33.50
2023-05-05T08:36:40.188Z,33.20
2023-05-05T08:37:43.974Z,33.00
2023-05-05T08:38:47.832Z,32.70
2023-05-05T08:39:54.788Z,32.50
2023-05-05T08:40:58.477Z,32.30
2023-05-05T08:42:02.565Z,32.10
2023-05-05T08:43:06.047Z,32.10
2023-05-05T08:44:10.300Z,32.00
2023-05-05T08:45:16.369Z,31.90
2023-05-05T08:46:20.253Z,31.90
2023-05-05T08:47:26.536Z,31.70
2023-05-05T08:48:36.750Z,31.60
2023-05-05T08:49:45.536Z,31.50
2023-05-05T08:50:57.387Z,31.50
2023-05-05T08:52:02.992Z,31.30
2023-05-05T08:53:11.817Z,31.20
2023-05-05T08:54:19.381Z,31.00
2023-05-05T08:55:26.933Z,30.90
2023-05-05T08:56:46.109Z,30.70
2023-05-05T08:57:57.266Z,30.50
2023-05-05T08:59:02.292Z,30.30
2023-05-05T09:00:07.867Z,30.20
2023-05-05T09:01:13.039Z,30.00
2023-05-05T09:02:16.411Z,29.90
2023-05-05T09:03:20.185Z,29.70
2023-05-05T09:04:25.474Z,29.60
2023-05-05T09:05:32.268Z,29.50
2023-05-05T09:06:37.708Z,29.40
2023-05-05T09:07:43.617Z,29.20
2023-05-05T09:08:56.985Z,29.00
2023-05-05T09:10:03.473Z,28.90
2023-05-05T09:11:11.572Z,28.60
2023-05-05T09:12:15.798Z,28.40
2023-05-05T09:13:28.744Z,28.10
2023-05-05T09:14:33.284Z,27.80
2023-05-05T09:15:39.054Z,27.50
2023-05-05T09:16:45.289Z,27.30
2023-05-05T09:17:48.498Z,27.00
2023-05-05T09:19:02.003Z,26.80
2023-05-05T09:20:07.494Z,26.50
2023-05-05T09:21:28.146Z,26.30
2023-05-05T09:22:38.570Z,25.90
2023-05-05T09:24:09.289Z,25.70
2023-05-05T09:25:18.070Z,25.50
2023-05-05T09:26:21.008Z,25.10
2023-05-05T09:27:27.795Z,24.90
2023-05-05T09:28:31.690Z,24.70
2023-05-05T09:29:35.310Z,24.50
2023-05-05T09:30:39.100Z,24.30
2023-05-05T09:31:45.463Z,24.10
2023-05-05T09:32:50.192Z,23.90
2023-05-05T09:33:54.056Z,23.70
2023-05-05T09:35:02.595Z,23.50
2023-05-05T09:36:06.569Z,23.30
2023-05-05T09:37:09.438Z,23.10
2023-05-05T09:38:13.282Z,22.90
2023-05-05T09:39:21.685Z,22.60
2023-05-05T09:40:27.630Z,22.40
2023-05-05T09:41:38.631Z,22.20
2023-05-05T09:42:42.999Z,22.00
2023-05-05T09:43:52.482Z,21.80
2023-05-05T09:44:57.909Z,21.60
2023-05-05T09:46:09.973Z,21.40
2023-05-05T09:47:26.092Z,21.20
2023-05-05T09:48:34.821Z,21.10
2023-05-05T09:49:43.321Z,20.90
2023-05-05T09:50:47.229Z,20.90
2023-05-05T09:51:50.242Z,20.80
2023-05-05T09:52:57.302Z,20.70
2023-05-05T09:54:00.962Z,20.60
2023-05-05T09:55:05.456Z,20.50
2023-05-05T09:56:10.464Z,20.50
2023-05-05T09:57:40.964Z,20.40
2023-05-05T09:58:43.606Z,20.40
2023-05-05T09:59:57.747Z,20.30
2023-05-05T10:01:02.995Z,20.30
2023-05-05T10:02:14.963Z,20.30
2023-05-05T10:03:18.036Z,20.30
2023-05-05T10:04:29.304Z,20.40
2023-05-05T10:05:35.342Z,20.40
2023-05-05T10:06:45.001Z,20.40
2023-05-05T10:07:49.617Z,20.30
2023-05-05T10:09:02.453Z,20.30
2023-05-05T10:10:09.264Z,20.30
2023-05-05T10:11:15.723Z,20.20
2023-05-05T10:12:18.841Z,20.20
2023-05-05T10:13:26.224Z,20.10
2023-05-05T10:14:35.305Z,20.10
2023-05-05T10:15:38.472Z,20.00
2023-05-05T10:16:47.724Z,20.00
2023-05-05T10:18:05.895Z,20.00
2023-05-05T10:19:14.295Z,19.90
2023-05-05T10:20:20.125Z,19.90
2023-05-05T10:21:25.592Z,19.80
2023-05-05T10:22:31.355Z,19.80
2023-05-05T10:23:39.803Z,19.80
2023-05-05T10:24:52.486Z,19.70
2023-05-05T10:26:04.485Z,19.70
2023-05-05T10:27:16.980Z,19.60
2023-05-05T10:28:41.577Z,19.60
2023-05-05T10:29:54.889Z,19.50
2023-05-05T10:31:16.150Z,19.50
2023-05-05T10:32:54.389Z,19.40
2023-05-05T10:34:04.652Z,19.40
2023-05-05T10:35:10.050Z,19.30
2023-05-05T10:36:15.914Z,19.20
2023-05-05T10:37:19.892Z,19.20
2023-05-05T10:38:26.911Z,19.10
2023-05-05T10:39:32.560Z,19.10
2023-05-05T10:40:36.623Z,19.00
2023-05-05T10:41:39.767Z,19.00
2023-05-05T10:42:45.532Z,18.90
2023-05-05T10:43:50.403Z,18.90
2023-05-05T10:44:53.588Z,18.80
2023-05-05T10:45:57.993Z,18.80
2023-05-05T10:47:02.357Z,18.80
2023-05-05T10:48:13.916Z,18.70
2023-05-05T10:49:29.978Z,18.70
2023-05-05T10:50:39.344Z,18.60
2023-05-05T10:52:01.396Z,18.60
2023-05-05T10:53:35.359Z,18.50
2023-05-05T10:54:48.664Z,18.50
2023-05-05T10:56:02.795Z,18.40
2023-05-05T10:57:08.230Z,18.40
2023-05-05T10:58:35.048Z,18.40
2023-05-05T10:59:45.250Z,18.30
2023-05-05T11:00:51.871Z,18.30
2023-05-05T11:01:55.815Z,18.20
2023-05-05T11:03:24.350Z,18.20
2023-05-05T11:04:27.737Z,18.20
2023-05-05T11:05:33.986Z,18.10
2023-05-05T11:07:20.576Z,18.20
2023-05-05T11:08:27.962Z,18.10
2023-05-05T11:09:32.094Z,18.10
2023-05-05T11:10:47.543Z,18.10
2023-05-05T11:12:05.199Z,18.10
2023-05-05T11:13:23.449Z,18.10
2023-05-05T11:14:26.349Z,18.20
2023-05-05T11:15:38.772Z,18.20
2023-05-05T11:16:50.613Z,18.10
2023-05-05T11:17:54.672Z,18.10
2023-05-05T11:18:58.322Z,18.10
2023-05-05T11:20:00.910Z,18.10
2023-05-05T11:21:21.526Z,18.20
2023-05-05T11:22:24.798Z,18.10
2023-05-05T11:23:29.146Z,18.20
2023-05-05T11:24:33.459Z,18.10
2023-05-05T11:25:48.398Z,18.20
2023-05-05T11:26:53.469Z,18.10
2023-05-05T11:28:05.903Z,18.20
2023-05-05T11:29:10.747Z,18.10
2023-05-05T11:30:15.189Z,18.20
2023-05-05T11:31:22.005Z,18.20
2023-05-05T11:32:50.204Z,18.20
2023-05-05T11:33:53.869Z,18.20
2023-05-05T11:34:57.919Z,18.20
2023-05-05T11:36:04.097Z,18.20
2023-05-05T11:37:09.895Z,18.20
2023-05-05T11:38:15.594Z,18.20
2023-05-05T11:39:30.963Z,18.20
2023-05-05T11:40:38.367Z,18.20
2023-05-05T11:42:11.026Z,18.20
2023-05-05T11:43:19.740Z,18.10
2023-05-05T11:44:32.680Z,18.10
2023-05-05T11:45:37.023Z,18.10
2023-05-05T11:46:42.088Z,18.10
2023-05-05T11:47:46.797Z,18.10
2023-05-05T11:48:52.989Z,18.00
2023-05-05T11:49:57.348Z,17.90
2023-05-05T11:51:05.402Z,17.80
2023-05-05T11:52:10.603Z,17.70
2023-05-05T11:53:15.852Z,17.70
2023-05-05T11:54:27.992Z,17.60
2023-05-05T11:56:27.771Z,17.50
2023-05-05T11:57:33.807Z,17.50
2023-05-05T11:58:42.971Z,17.50
2023-05-05T11:59:55.661Z,17.50
2023-05-05T12:00:59.164Z,17.40
2023-05-05T12:02:03.294Z,17.40
2023-05-05T12:03:09.026Z,17.40
2023-05-05T12:04:14.000Z,17.40
2023-05-05T12:05:24.514Z,17.40
2023-05-05T12:06:27.611Z,17.40
2023-05-05T12:07:33.224Z,17.40
2023-05-05T12:08:39.649Z,17.40
2023-05-05T12:09:45.669Z,17.40
2023-05-05T12:10:49.918Z,17.40
2023-05-05T12:11:53.870Z,17.40
2023-05-05T12:12:57.741Z,17.40
2023-05-05T12:14:11.004Z,17.30
2023-05-05T12:15:17.141Z,17.30
2023-05-05T12:16:29.948Z,17.30
2023-05-05T12:17:44.901Z,17.30
2023-05-05T12:18:47.824Z,17.30
2023-05-05T12:19:53.538Z,17.20
2023-05-05T12:20:56.609Z,17.20
2023-05-05T12:22:00.400Z,17.20
2023-05-05T12:23:05.026Z,17.10
2023-05-05T12:24:12.628Z,17.10
2023-05-05T12:25:16.503Z,17.10
2023-05-05T12:26:26.045Z,17.00
2023-05-05T12:27:30.383Z,17.00
2023-05-05T12:28:45.611Z,16.90
2023-05-05T12:29:49.580Z,16.80
2023-05-05T12:31:00.391Z,16.80
2023-05-05T12:32:05.123Z,16.70
2023-05-05T12:33:09.723Z,16.70
2023-05-05T12:34:12.999Z,16.60
2023-05-05T12:35:17.305Z,16.60
2023-05-05T12:36:20.005Z,16.50
2023-05-05T12:37:24.622Z,16.50
2023-05-05T12:38:27.278Z,16.50
2023-05-05T12:39:37.152Z,16.40
2023-05-05T12:40:46.291Z,16.30
2023-05-05T12:41:48.587Z,16.30
2023-05-05T12:42:53.764Z,16.30
2023-05-05T12:43:58.657Z,16.30
2023-05-05T12:45:01.395Z,16.30
2023-05-05T12:46:12.213Z,16.30
2023-05-05T12:47:29.071Z,16.20
2023-05-05T12:48:33.036Z,16.20
2023-05-05T12:49:51.407Z,16.20
2023-05-05T12:50:54.161Z,16.20
2023-05-05T12:51:58.485Z,16.20
2023-05-05T12:53:01.211Z,16.10
2023-05-05T12:54:07.497Z,16.10
2023-05-05T12:55:11.425Z,16.10
2023-05-05T12:56:38.622Z,16.00
2023-05-05T12:58:01.468Z,16.00
2023-05-05T12:59:05.627Z,16.00
2023-05-05T13:00:17.756Z,16.00
2023-05-05T13:01:22.148Z,16.00
2023-05-05T13:02:35.880Z,16.00
2023-05-05T13:03:38.943Z,16.00
2023-05-05T13:04:51.964Z,16.00
2023-05-05T13:05:54.457Z,16.00
2023-05-05T13:07:20.742Z,16.10
2023-05-05T13:08:25.356Z,16.10
2023-05-05T13:09:32.416Z,16.10
2023-05-05T13:10:42.556Z,16.10
2023-05-05T13:11:52.934Z,16.10
2023-05-05T13:13:03.392Z,16.20
2023-05-05T13:14:07.675Z,16.20
2023-05-05T13:15:13.298Z,16.20
2023-05-05T13:16:15.907Z,16.20
2023-05-05T13:17:20.945Z,16.20
2023-05-05T13:18:23.687Z,16.20
2023-05-05T13:19:27.879Z,16.30
2023-05-05T13:20:34.236Z,16.30
2023-05-05T13:21:38.825Z,16.20
2023-05-05T13:22:46.298Z,16.30
2023-05-05T13:23:50.470Z,16.20
2023-05-05T13:24:54.875Z,16.30
2023-05-05T13:25:57.465Z,16.20
2023-05-05T13:27:05.247Z,16.20
2023-05-05T13:28:08.855Z,16.20
2023-05-05T13:29:11.414Z,16.20
2023-05-05T13:30:19.108Z,16.20
2023-05-05T13:31:24.035Z,16.10
2023-05-05T13:32:33.975Z,16.10
2023-05-05T13:33:37.816Z,16.00
2023-05-05T13:34:42.636Z,15.90
2023-05-05T13:35:45.136Z,15.90
2023-05-05T13:36:48.739Z,15.80
2023-05-05T13:37:52.242Z,15.80
2023-05-05T13:38:54.842Z,15.80
2023-05-05T13:39:59.445Z,15.70
2023-05-05T13:41:02.300Z,15.70
2023-05-05T13:42:06.184Z,15.70
2023-05-05T13:43:08.671Z,15.70
2023-05-05T13:44:12.265Z,15.70
2023-05-05T13:45:14.935Z,15.70
2023-05-05T13:46:20.069Z,15.60
2023-05-05T13:47:23.943Z,15.60
2023-05-05T13:48:27.950Z,15.60
2023-05-05T13:49:31.390Z,15.50
2023-05-05T13:50:33.836Z,15.50
2023-05-05T13:51:38.356Z,15.40
2023-05-05T13:52:41.791Z,15.40
2023-05-05T13:53:45.224Z,15.30
2023-05-05T13:54:48.278Z,15.30
2023-05-05T13:55:51.865Z,15.30
2023-05-05T13:56:56.306Z,15.30
2023-05-05T13:57:58.763Z,15.20
2023-05-05T13:59:02.491Z,15.30
2023-05-05T14:00:06.870Z,15.20
2023-05-05T14:01:12.600Z,15.20
2023-05-05T14:02:15.336Z,15.20
2023-05-05T14:03:18.940Z,15.20
2023-05-05T14:04:22.948Z,15.20
2023-05-05T14:05:27.041Z,15.20
2023-05-05T14:06:30.585Z,15.20
2023-05-05T14:07:33.016Z,15.20
2023-05-05T14:08:36.611Z,15.20
2023-05-05T14:09:40.301Z,15.20
2023-05-05T14:10:44.262Z,15.20
2023-05-05T14:11:48.915Z,15.20
2023-05-05T14:12:53.211Z,15.20
2023-05-05T14:13:56.965Z,15.30
2023-05-05T14:14:59.561Z,15.30
2023-05-05T14:16:03.133Z,15.40
2023-05-05T14:17:06.758Z,15.40
2023-05-05T14:18:09.779Z,15.40
2023-05-05T14:19:13.611Z,15.50
2023-05-05T14:20:17.554Z,15.50
2023-05-05T14:21:21.163Z,15.50
2023-05-05T14:22:23.785Z,15.50
2023-05-05T14:23:27.621Z,15.60
2023-05-05T14:24:31.253Z,15.60